createdAt,value
2019-04-01T00:01:11.381Z,5.90
2019-04-01T00:03:41.018Z,5.80
2019-04-01T00:06:10.558Z,5.40
2019-04-01T00:08:40.171Z,6.13
2019-04-01T00:11:09.828Z,5.60
2019-04-01T00:13:39.463Z,5.30
2019-04-01T00:16:09.148Z,5.20
2019-04-01T00:18:38.705Z,4.90
2019-04-01T00:21:08.500Z,5.73
2019-04-01T00:23:38.003Z,6.27
2019-04-01T00:26:07.672Z,5.80
2019-04-01T00:28:37.365Z,6.10
2019-04-01T00:31:07.005Z,5.67
2019-04-01T00:33:36.733Z,5.93
2019-04-01T00:36:06.442Z,5.80
2019-04-01T00:38:36.107Z,5.13
2019-04-01T00:41:05.744Z,5.90
2019-04-01T00:44:00.355Z,6.67
2019-04-01T00:46:31.530Z,6.00
2019-04-01T00:49:01.139Z,6.97
2019-04-01T00:51:30.766Z,6.33
2019-04-01T00:54:00.450Z,7.73
2019-04-01T00:56:30.103Z,5.77
2019-04-01T00:58:59.671Z,6.17
2019-04-01T01:01:29.342Z,5.00
2019-04-01T01:03:59.016Z,6.97
2019-04-01T01:06:28.661Z,5.83
2019-04-01T01:08:58.305Z,5.97
2019-04-01T01:11:27.947Z,7.00
2019-04-01T01:13:57.620Z,6.60
2019-04-01T01:16:27.385Z,8.07
2019-04-01T01:18:57.070Z,6.87
2019-04-01T01:21:26.695Z,6.20
2019-04-01T01:23:56.380Z,7.03
2019-04-01T01:26:26.019Z,6.00
2019-04-01T01:28:55.700Z,6.90
2019-04-01T01:31:25.347Z,6.30
2019-04-01T01:33:55.001Z,7.53
2019-04-01T01:36:24.678Z,6.90
2019-04-01T01:38:54.290Z,6.80
2019-04-01T01:41:23.963Z,7.20
2019-04-01T01:43:53.420Z,7.57
2019-04-01T01:46:23.089Z,5.67
2019-04-01T01:48:52.855Z,6.40
2019-04-01T01:51:22.616Z,6.63
2019-04-01T01:53:52.281Z,6.43
2019-04-01T01:56:22.024Z,8.03
2019-04-01T01:58:51.692Z,6.57
2019-04-01T02:01:21.341Z,6.27
2019-04-01T02:03:51.024Z,6.07
2019-04-01T02:06:20.760Z,7.47
2019-04-01T02:08:50.348Z,6.87
2019-04-01T02:11:20.000Z,6.03
2019-04-01T02:13:49.755Z,5.80
2019-04-01T02:16:19.477Z,7.43
2019-04-01T02:18:49.197Z,5.40
2019-04-01T02:21:18.856Z,6.73
2019-04-01T02:23:48.469Z,6.70
2019-04-01T02:26:18.211Z,7.33
2019-04-01T02:28:47.856Z,6.97
2019-04-01T02:31:17.626Z,8.17
2019-04-01T02:33:47.280Z,7.97
2019-04-01T02:36:16.973Z,7.37
2019-04-01T02:38:46.616Z,7.07
2019-04-01T02:41:16.393Z,7.30
2019-04-01T02:43:46.009Z,6.40
2019-04-01T02:46:15.703Z,6.77
2019-04-01T02:48:45.434Z,6.70
2019-04-01T02:51:15.094Z,7.47
2019-04-01T02:53:44.766Z,7.40
2019-04-01T02:56:14.414Z,6.57
2019-04-01T02:58:44.103Z,7.47
2019-04-01T03:01:13.739Z,7.87
2019-04-01T03:03:43.381Z,6.50
2019-04-01T03:06:12.968Z,7.13
2019-04-01T03:08:42.605Z,7.10
2019-04-01T03:11:12.270Z,8.17
2019-04-01T03:13:41.918Z,7.27
2019-04-01T03:16:11.590Z,7.20
2019-04-01T03:18:41.258Z,8.10
2019-04-01T03:21:10.925Z,6.47
2019-04-01T03:23:40.564Z,7.87
2019-04-01T03:26:10.246Z,7.67
2019-04-01T03:28:39.879Z,6.27
2019-04-01T03:31:09.543Z,7.43
2019-04-01T03:33:39.108Z,7.03
2019-04-01T03:36:08.846Z,6.90
2019-04-01T03:38:38.542Z,6.90
2019-04-01T03:41:08.198Z,6.83
2019-04-01T03:43:37.853Z,7.40
2019-04-01T03:46:07.503Z,8.60
2019-04-01T03:48:37.168Z,7.67
2019-04-01T03:51:06.820Z,7.53
2019-04-01T03:53:36.422Z,7.50
2019-04-01T03:56:06.895Z,7.63
2019-04-01T03:58:36.556Z,5.93
2019-04-01T04:01:06.292Z,6.87
2019-04-01T04:03:35.993Z,6.47
2019-04-01T04:06:05.649Z,6.60
2019-04-01T04:08:35.326Z,6.30
2019-04-01T04:11:05.260Z,6.67
2019-04-01T04:13:34.821Z,5.90
2019-04-01T04:16:04.510Z,6.30
2019-04-01T04:18:34.109Z,6.73
2019-04-01T04:21:03.851Z,6.30
2019-04-01T04:23:33.448Z,6.10
2019-04-01T04:26:03.112Z,7.90
2019-04-01T04:31:06.444Z,6.00
2019-04-01T04:33:36.089Z,6.87
2019-04-01T04:36:05.935Z,5.77
2019-04-01T04:38:35.623Z,7.60
2019-04-01T04:41:05.284Z,5.60
2019-04-01T04:43:34.924Z,5.20
2019-04-01T04:46:04.575Z,5.90
2019-04-01T04:48:34.257Z,6.30
2019-04-01T04:51:03.898Z,6.03
2019-04-01T04:53:33.610Z,7.10
2019-04-01T04:56:03.385Z,7.20
2019-04-01T04:58:33.097Z,7.13
2019-04-01T05:01:02.683Z,6.80
2019-04-01T05:03:32.382Z,4.80
2019-04-01T05:06:02.034Z,7.40
2019-04-01T05:08:31.772Z,6.03
2019-04-01T05:11:02.339Z,6.67
2019-04-01T05:13:32.039Z,5.60
2019-04-01T05:16:01.735Z,5.90
2019-04-01T05:18:31.533Z,5.17
2019-04-01T05:21:01.196Z,6.30
2019-04-01T05:23:30.953Z,5.90
2019-04-01T05:26:00.613Z,6.63
2019-04-01T05:28:30.480Z,6.97
2019-04-01T05:31:01.177Z,6.00
2019-04-01T05:33:30.816Z,6.03
2019-04-01T05:36:00.373Z,5.53
2019-04-01T05:38:30.040Z,6.20
2019-04-01T05:40:59.808Z,7.10
2019-04-01T05:43:29.849Z,7.67
2019-04-01T05:45:59.510Z,6.17
2019-04-01T05:48:31.660Z,5.93
2019-04-01T05:51:01.193Z,6.17
2019-04-01T05:53:30.894Z,6.00
2019-04-01T05:56:00.543Z,6.70
2019-04-01T05:58:30.397Z,6.23
2019-04-01T06:01:05.575Z,6.03
2019-04-01T06:03:35.450Z,6.40
2019-04-01T06:06:05.194Z,6.33
2019-04-01T06:08:34.970Z,5.97
2019-04-01T06:11:04.622Z,6.03
2019-04-01T06:13:34.264Z,7.00
2019-04-01T06:16:04.047Z,6.20
2019-04-01T06:18:33.785Z,7.00
2019-04-01T06:21:03.584Z,6.80
2019-04-01T06:23:33.423Z,6.23
2019-04-01T06:26:03.081Z,6.60
2019-04-01T06:28:32.782Z,7.23
2019-04-01T06:31:02.518Z,6.07
2019-04-01T06:33:32.163Z,6.30
2019-04-01T06:36:01.803Z,6.40
2019-04-01T06:38:31.453Z,6.07
2019-04-01T06:41:01.070Z,7.30
2019-04-01T06:43:30.725Z,6.40
2019-04-01T06:46:00.479Z,6.17
2019-04-01T06:48:30.113Z,5.90
2019-04-01T06:50:59.797Z,6.57
2019-04-01T06:53:29.450Z,6.47
2019-04-01T06:55:59.105Z,6.93
2019-04-01T06:58:28.722Z,6.43
2019-04-01T07:00:58.345Z,6.57
2019-04-01T07:03:28.114Z,5.70
2019-04-01T07:05:57.778Z,6.30
2019-04-01T07:08:27.353Z,5.53
2019-04-01T07:10:57.092Z,5.90
2019-04-01T07:13:26.652Z,6.13
2019-04-01T07:15:56.412Z,5.57
2019-04-01T07:18:26.095Z,5.03
2019-04-01T07:20:55.618Z,5.23
2019-04-01T07:23:25.306Z,5.13
2019-04-01T07:25:54.939Z,5.53
2019-04-01T07:28:24.592Z,3.87
2019-04-01T07:30:54.369Z,4.17
2019-04-01T07:33:24.035Z,2.10
2019-04-01T07:35:53.675Z,3.50
2019-04-01T07:38:23.372Z,3.90
2019-04-01T07:40:53.505Z,3.47
2019-04-01T07:43:23.080Z,3.17
2019-04-01T07:45:53.035Z,3.00
2019-04-01T07:48:22.802Z,1.53
2019-04-01T07:50:52.568Z,3.10
2019-04-01T07:53:22.208Z,4.07
2019-04-01T07:55:51.796Z,2.50
2019-04-01T07:58:21.553Z,3.93
2019-04-01T08:00:51.380Z,4.70
2019-04-01T08:03:21.231Z,3.53
2019-04-01T08:05:51.087Z,1.50
2019-04-01T08:08:21.658Z,3.07
2019-04-01T08:10:51.224Z,3.83
2019-04-01T08:13:20.785Z,2.13
2019-04-01T08:15:50.530Z,1.53
2019-04-01T08:18:20.169Z,2.37
2019-04-01T08:20:49.768Z,1.60
2019-04-01T08:23:19.313Z,4.30
2019-04-01T08:25:48.974Z,3.80
2019-04-01T08:28:18.616Z,1.97
2019-04-01T08:30:49.357Z,2.47
2019-04-01T08:33:19.229Z,3.83
2019-04-01T08:35:48.815Z,3.80
2019-04-01T08:38:18.613Z,3.37
2019-04-01T08:40:48.378Z,4.03
2019-04-01T08:43:18.016Z,3.73
2019-04-01T08:45:47.578Z,3.83
2019-04-01T08:48:17.143Z,5.33
2019-04-01T08:50:46.788Z,3.83
2019-04-01T08:53:16.549Z,4.90
2019-04-01T08:55:46.219Z,3.77
2019-04-01T08:58:16.796Z,2.60
2019-04-01T09:00:46.447Z,5.17
2019-04-01T09:03:16.088Z,3.23
2019-04-01T09:05:45.795Z,4.50
2019-04-01T09:08:16.319Z,4.23
2019-04-01T09:10:46.360Z,3.73
2019-04-01T09:13:16.387Z,4.87
2019-04-01T09:15:45.953Z,2.40
2019-04-01T09:18:15.512Z,1.50
2019-04-01T09:20:45.163Z,3.33
2019-04-01T09:23:14.836Z,4.37
2019-04-01T09:25:44.536Z,5.73
2019-04-01T09:28:14.496Z,3.20
2019-04-01T09:30:44.222Z,1.70
2019-04-01T09:33:13.895Z,3.70
2019-04-01T09:35:44.287Z,3.20
2019-04-01T09:38:14.066Z,5.10
2019-04-01T09:40:43.807Z,3.00
2019-04-01T09:43:14.301Z,2.03
2019-04-01T09:45:44.353Z,4.30
2019-04-01T09:48:14.136Z,3.30
2019-04-01T09:50:43.781Z,4.40
2019-04-01T09:53:13.580Z,4.27
2019-04-01T09:55:43.437Z,3.53
2019-04-01T09:58:13.063Z,4.80
2019-04-01T10:00:42.733Z,4.17
2019-04-01T10:03:12.374Z,5.97
2019-04-01T10:05:42.226Z,3.70
2019-04-01T10:08:11.870Z,4.17
2019-04-01T10:10:41.579Z,5.80
2019-04-01T10:13:11.216Z,4.60
2019-04-01T10:15:40.875Z,3.03
2019-04-01T10:18:10.508Z,4.80
2019-04-01T10:20:40.299Z,5.20
2019-04-01T10:23:09.953Z,4.00
2019-04-01T10:25:39.597Z,3.40
2019-04-01T10:28:09.649Z,2.60
2019-04-01T10:30:41.504Z,4.17
2019-04-01T10:33:10.886Z,2.70
2019-04-01T10:35:40.296Z,2.90
2019-04-01T10:38:09.707Z,5.00
2019-04-01T10:40:39.160Z,3.30
2019-04-01T10:43:08.534Z,6.03
2019-04-01T10:45:37.963Z,4.30
2019-04-01T10:48:07.399Z,2.70
2019-04-01T10:50:36.875Z,3.40
2019-04-01T10:53:06.379Z,4.87
2019-04-01T10:55:35.835Z,2.77
2019-04-01T10:58:05.391Z,2.30
2019-04-01T11:00:34.799Z,3.57
2019-04-01T11:03:06.210Z,3.40
2019-04-01T11:05:35.316Z,5.17
2019-04-01T11:08:04.841Z,4.97
2019-04-01T11:10:34.276Z,3.93
2019-04-01T11:13:03.699Z,5.60
2019-04-01T11:15:33.145Z,7.23
2019-04-01T11:18:02.565Z,5.43
2019-04-01T11:20:31.970Z,5.83
2019-04-01T11:23:02.803Z,6.57
2019-04-01T11:25:32.553Z,2.93
2019-04-01T11:28:02.071Z,6.83
2019-04-01T11:30:31.459Z,7.90
2019-04-01T11:33:00.980Z,6.00
2019-04-01T11:35:30.384Z,6.90
2019-04-01T11:37:59.802Z,7.23
2019-04-01T11:40:29.241Z,6.97
2019-04-01T11:42:58.829Z,5.50
2019-04-01T11:45:28.219Z,9.20
2019-04-01T11:47:57.770Z,6.93
2019-04-01T11:50:27.184Z,7.50
2019-04-01T11:52:56.617Z,6.73
2019-04-01T11:55:26.004Z,3.27
2019-04-01T11:57:55.427Z,5.10
2019-04-01T12:00:26.371Z,5.67
2019-04-01T12:02:55.962Z,8.67
2019-04-01T12:05:25.359Z,6.70
2019-04-01T12:07:54.804Z,7.80
2019-04-01T12:10:24.190Z,6.13
2019-04-01T12:12:53.624Z,4.87
2019-04-01T12:15:23.017Z,7.37
2019-04-01T12:17:52.426Z,6.47
2019-04-01T12:20:21.827Z,5.90
2019-04-01T12:22:53.184Z,6.10
2019-04-01T12:25:22.551Z,7.67
2019-04-01T12:27:51.975Z,8.30
2019-04-01T12:30:21.361Z,5.30
2019-04-01T12:32:50.830Z,5.97
2019-04-01T12:35:20.243Z,6.93
2019-04-01T12:37:49.649Z,7.20
2019-04-01T12:40:19.018Z,6.60
2019-04-01T12:42:50.803Z,5.23
2019-04-01T12:45:19.558Z,5.33
2019-04-01T12:47:49.033Z,7.07
2019-04-01T12:50:18.431Z,8.83
2019-04-01T12:52:47.853Z,6.70
2019-04-01T12:55:17.215Z,7.50
2019-04-01T12:57:48.471Z,10.50
2019-04-01T13:00:17.847Z,7.80
2019-04-01T13:02:47.288Z,9.80
2019-04-01T13:05:16.646Z,8.03
2019-04-01T13:07:46.027Z,6.00
2019-04-01T13:10:15.462Z,8.40
2019-04-01T13:12:46.335Z,7.53
2019-04-01T13:15:15.991Z,7.37
2019-04-01T13:17:45.382Z,3.93
2019-04-01T13:20:15.017Z,10.43
2019-04-01T13:22:44.562Z,7.50
2019-04-01T13:25:14.261Z,6.60
2019-04-01T13:27:43.818Z,7.37
2019-04-01T13:30:13.314Z,6.53
2019-04-01T13:32:42.726Z,6.57
2019-04-01T13:35:12.143Z,6.70
2019-04-01T13:37:41.528Z,8.20
2019-04-01T13:40:11.052Z,8.77
2019-04-01T13:42:40.435Z,6.90
2019-04-01T13:45:09.874Z,9.30
2019-04-01T13:47:41.265Z,9.37
2019-04-01T13:50:10.482Z,5.03
2019-04-01T13:52:39.837Z,7.17
2019-04-01T13:55:10.049Z,5.20
2019-04-01T13:57:41.903Z,3.43
2019-04-01T14:00:11.831Z,6.90
2019-04-01T14:02:42.742Z,5.67
2019-04-01T14:05:12.213Z,7.27
2019-04-01T14:07:41.599Z,7.73
2019-04-01T14:10:11.278Z,4.50
2019-04-01T14:12:40.908Z,6.77
2019-04-01T14:15:10.431Z,8.20
2019-04-01T14:17:40.202Z,7.30
2019-04-01T14:20:09.556Z,3.13
2019-04-01T14:22:39.011Z,3.60
2019-04-01T14:25:08.407Z,5.17
2019-04-01T14:27:39.284Z,6.73
2019-04-01T14:30:08.810Z,3.93
2019-04-01T14:32:38.694Z,5.37
2019-04-01T14:35:08.211Z,4.57
2019-04-01T14:37:37.726Z,4.90
2019-04-01T14:40:08.596Z,6.10
2019-04-01T14:42:39.651Z,3.70
2019-04-01T14:45:09.810Z,3.70
2019-04-01T14:47:55.877Z,6.43
2019-04-01T14:50:10.324Z,5.60
2019-04-01T14:52:41.310Z,5.10
2019-04-01T14:55:11.038Z,3.00
2019-04-01T14:57:40.503Z,7.93
2019-04-01T15:00:11.593Z,4.67
2019-04-01T15:02:41.104Z,6.03
2019-04-01T15:05:10.590Z,9.43
2019-04-01T15:07:40.032Z,8.70
2019-04-01T15:10:09.425Z,7.23
2019-04-01T15:12:39.645Z,8.40
2019-04-01T15:15:09.808Z,5.17
2019-04-01T15:17:39.272Z,6.00
2019-04-01T15:20:08.725Z,6.13
2019-04-01T15:22:38.091Z,6.77
2019-04-01T15:25:07.657Z,7.17
2019-04-01T15:27:37.053Z,7.73
2019-04-01T15:30:07.199Z,6.80
2019-04-01T15:32:36.612Z,6.80
2019-04-01T15:35:06.777Z,9.33
2019-04-01T15:37:36.229Z,7.53
2019-04-01T15:40:06.901Z,7.13
2019-04-01T15:42:36.356Z,7.07
2019-04-01T15:45:06.375Z,6.13
2019-04-01T15:47:36.212Z,7.80
2019-04-01T15:50:06.201Z,7.40
2019-04-01T15:52:36.299Z,6.17
2019-04-01T15:55:06.189Z,8.37
2019-04-01T15:57:35.697Z,7.50
2019-04-01T16:00:05.528Z,8.33
2019-04-01T16:02:34.888Z,4.70
2019-04-01T16:05:05.912Z,8.13
2019-04-01T16:07:35.479Z,8.13
2019-04-01T16:10:05.394Z,8.30
2019-04-01T16:12:34.993Z,9.10
2019-04-01T16:15:04.589Z,7.10
2019-04-01T16:17:34.225Z,6.33
2019-04-01T16:20:03.995Z,7.40
2019-04-01T16:22:34.853Z,6.77
2019-04-01T16:25:06.157Z,7.77
2019-04-01T16:27:36.390Z,7.27
2019-04-01T16:30:07.335Z,6.50
2019-04-01T16:32:40.567Z,8.37
2019-04-01T16:35:13.445Z,7.30
2019-04-01T16:37:42.814Z,6.60
2019-04-01T16:40:12.194Z,7.60
2019-04-01T16:42:41.672Z,7.60
2019-04-01T16:45:12.449Z,8.20
2019-04-01T16:47:42.590Z,7.70
2019-04-01T16:50:11.983Z,7.70
2019-04-01T16:52:41.410Z,8.50
2019-04-01T16:55:10.812Z,7.90
2019-04-01T16:57:40.549Z,8.03
2019-04-01T17:00:09.963Z,7.93
2019-04-01T17:02:39.442Z,8.20
2019-04-01T17:05:10.506Z,8.60
2019-04-01T17:07:43.689Z,8.83
2019-04-01T17:10:20.039Z,8.40
2019-04-01T17:12:50.915Z,7.53
2019-04-01T17:15:21.390Z,7.97
2019-04-01T17:17:51.223Z,8.97
2019-04-01T17:20:20.719Z,8.40
2019-04-01T17:22:50.199Z,7.30
2019-04-01T17:25:19.625Z,7.77
2019-04-01T17:27:49.052Z,8.27
2019-04-01T17:30:18.507Z,9.37
2019-04-01T17:32:48.063Z,7.90
2019-04-01T17:35:17.413Z,8.43
2019-04-01T17:37:46.881Z,8.30
2019-04-01T17:40:17.239Z,8.57
2019-04-01T17:42:47.090Z,7.87
2019-04-01T17:45:36.763Z,8.17
2019-04-01T17:48:06.781Z,8.03
2019-04-01T17:50:36.167Z,8.10
2019-04-01T17:53:06.810Z,9.03
2019-04-01T17:55:36.423Z,7.73
2019-04-01T17:58:06.482Z,8.73
2019-04-01T18:00:37.915Z,7.67
2019-04-01T18:03:09.341Z,8.10
2019-04-01T18:05:38.437Z,9.10
2019-04-01T18:08:07.893Z,6.80
2019-04-01T18:10:37.250Z,7.70
2019-04-01T18:13:06.727Z,8.30
2019-04-01T18:15:36.126Z,8.60
2019-04-01T18:18:05.636Z,6.97
2019-04-01T18:20:34.983Z,8.10
2019-04-01T18:23:04.472Z,8.30
2019-04-01T18:25:33.918Z,7.50
2019-04-01T18:28:03.361Z,6.60
2019-04-01T18:30:32.743Z,8.83
2019-04-01T18:33:02.336Z,6.73
2019-04-01T18:35:31.708Z,6.73
2019-04-01T18:38:01.108Z,6.93
2019-04-01T18:40:33.292Z,8.33
2019-04-01T18:43:01.729Z,7.27
2019-04-01T18:45:31.157Z,7.43
2019-04-01T18:48:00.562Z,6.50
2019-04-01T18:50:30.030Z,7.53
2019-04-01T18:52:59.373Z,7.33
2019-04-01T18:55:28.833Z,6.20
2019-04-01T18:57:58.292Z,7.80
2019-04-01T19:00:27.751Z,7.27
2019-04-01T19:02:57.661Z,7.27
2019-04-01T19:05:27.228Z,7.70
2019-04-01T19:07:56.628Z,8.47
2019-04-01T19:10:26.190Z,7.63
2019-04-01T19:13:05.899Z,6.87
2019-04-01T19:15:28.060Z,8.00
2019-04-01T19:17:57.885Z,7.53
2019-04-01T19:20:30.206Z,7.30
2019-04-01T19:22:58.631Z,8.37
2019-04-01T19:25:28.146Z,7.80
2019-04-01T19:27:57.626Z,7.03
2019-04-01T19:30:27.077Z,6.80
2019-04-01T19:32:56.461Z,6.93
2019-04-01T19:35:25.950Z,6.03
2019-04-01T19:37:56.282Z,6.60
2019-04-01T19:40:26.201Z,6.30
2019-04-01T19:42:55.968Z,6.43
2019-04-01T19:45:25.679Z,6.83
2019-04-01T19:47:57.306Z,7.17
2019-04-01T19:50:26.330Z,7.23
2019-04-01T19:52:55.745Z,7.20
2019-04-01T19:55:25.273Z,6.63
2019-04-01T19:57:56.040Z,7.40
2019-04-01T20:00:28.100Z,6.70
2019-04-01T20:02:56.898Z,7.70
2019-04-01T20:05:26.407Z,7.73
2019-04-01T20:07:55.902Z,6.27
2019-04-01T20:10:28.254Z,6.37
2019-04-01T20:12:56.601Z,5.97
2019-04-01T20:15:26.030Z,6.10
2019-04-01T20:17:55.450Z,6.90
2019-04-01T20:20:24.994Z,6.10
2019-04-01T20:22:54.750Z,8.40
2019-04-01T20:25:24.158Z,6.37
2019-04-01T20:27:53.834Z,7.27
2019-04-01T20:30:23.912Z,6.23
2019-04-01T20:32:53.407Z,6.43
2019-04-01T20:35:24.076Z,5.77
2019-04-01T20:37:53.810Z,5.97
2019-04-01T20:40:24.258Z,7.03
2019-04-01T20:42:55.045Z,6.50
2019-04-01T20:45:25.933Z,6.10
2019-04-01T20:47:55.626Z,6.60
2019-04-01T20:50:25.526Z,6.83
2019-04-01T20:52:55.358Z,7.30
2019-04-01T20:55:25.050Z,6.13
2019-04-01T20:57:55.572Z,7.20
2019-04-01T21:00:25.333Z,5.93
2019-04-01T21:02:55.140Z,5.63
2019-04-01T21:05:24.796Z,6.50
2019-04-01T21:07:54.441Z,6.57
2019-04-01T21:10:24.209Z,5.30
2019-04-01T21:12:53.850Z,6.00
2019-04-01T21:15:23.749Z,6.00
2019-04-01T21:17:53.394Z,6.10
2019-04-01T21:20:23.050Z,6.23
2019-04-01T21:22:52.797Z,6.13
2019-04-01T21:25:22.447Z,5.63
2019-04-01T21:27:53.083Z,5.73
2019-04-01T21:30:23.022Z,4.80
2019-04-01T21:32:52.655Z,5.80
2019-04-01T21:35:22.232Z,5.80
2019-04-01T21:37:52.011Z,6.30
2019-04-01T21:40:21.777Z,5.17
2019-04-01T21:42:51.578Z,6.23
2019-04-01T21:45:21.667Z,5.23
2019-04-01T21:47:51.656Z,5.10
2019-04-01T21:50:21.412Z,5.73
2019-04-01T21:52:51.163Z,4.90
2019-04-01T21:55:20.990Z,5.83
2019-04-01T21:57:51.331Z,5.00
2019-04-01T22:00:39.065Z,5.77
2019-04-01T22:03:08.735Z,4.53
2019-04-01T22:05:38.312Z,4.97
2019-04-01T22:08:07.943Z,4.73
2019-04-01T22:10:37.584Z,4.83
2019-04-01T22:13:07.273Z,4.63
2019-04-01T22:15:36.896Z,4.20
2019-04-01T22:18:06.666Z,4.97
2019-04-01T22:20:36.312Z,5.73
2019-04-01T22:23:06.286Z,4.60
2019-04-01T22:25:36.239Z,5.40
2019-04-01T22:28:05.992Z,4.93
2019-04-01T22:30:35.653Z,6.10
2019-04-01T22:33:05.225Z,5.60
2019-04-01T22:35:38.753Z,5.43
2019-04-01T22:38:06.620Z,5.60
2019-04-01T22:40:36.418Z,4.93
2019-04-01T22:43:06.119Z,5.30
2019-04-01T22:45:35.761Z,4.77
2019-04-01T22:48:05.423Z,5.83
2019-04-01T22:50:35.065Z,5.30
2019-04-01T22:53:04.951Z,4.57
2019-04-01T22:55:34.731Z,6.57
2019-04-01T22:58:04.488Z,5.47
2019-04-01T23:00:34.453Z,5.70
2019-04-01T23:03:04.103Z,5.97
2019-04-01T23:05:33.762Z,5.60
2019-04-01T23:08:03.442Z,5.17
2019-04-01T23:10:33.078Z,5.20
2019-04-01T23:13:02.740Z,4.93
2019-04-01T23:15:32.394Z,5.90
2019-04-01T23:18:02.132Z,5.60
2019-04-01T23:20:33.241Z,5.23
2019-04-01T23:23:03.032Z,7.10
2019-04-01T23:25:32.758Z,5.80
2019-04-01T23:28:02.323Z,5.87
2019-04-01T23:30:32.005Z,6.13
2019-04-01T23:33:01.659Z,6.77
2019-04-01T23:35:31.299Z,5.50
2019-04-01T23:38:00.849Z,6.10
2019-04-01T23:40:32.215Z,6.40
2019-04-01T23:43:02.093Z,7.03
2019-04-01T23:45:31.722Z,5.47
2019-04-01T23:48:01.514Z,5.40
2019-04-01T23:50:31.369Z,6.87
2019-04-01T23:53:02.149Z,6.43
2019-04-01T23:55:32.118Z,5.57
2019-04-01T23:58:01.796Z,6.20
